Time;durP1;ratioP1;P1;durP2;ratioP2;P2;SDS_P1;SDS_P2;PMS_P1;PMS_P2;Temp;Humidity;BMP_temperature;BMP_pressure;BME280_temperature;BME280_humidity;BME280_pressure;Samples;Min_cycle;Max_cycle;Signal;HPM_P1;HPM_P2
2023/10/30 00:00:49;;;;;;;4.22;3.30;;;9.10;99.90;;;;;;4997999;28;20104;-39
2023/10/30 00:03:14;;;;;;;5.40;3.65;;;9.10;99.90;;;;;;5003525;28;20038;-39
2023/10/30 00:05:40;;;;;;;5.68;3.90;;;9.10;99.90;;;;;;5003260;28;20038;-37
2023/10/30 00:08:06;;;;;;;4.60;3.40;;;9.00;99.90;;;;;;5002465;28;20109;-47
2023/10/30 00:10:34;;;;;;;5.70;3.00;;;8.90;99.90;;;;;;5002549;28;20523;-40
2023/10/30 00:12:59;;;;;;;5.07;2.97;;;8.90;99.90;;;;;;5001874;28;20254;-39
2023/10/30 00:15:25;;;;;;;3.53;3.13;;;8.90;99.90;;;;;;5001851;28;20068;-38
2023/10/30 00:17:51;;;;;;;5.15;3.13;;;8.90;99.90;;;;;;5002257;28;20809;-36
2023/10/30 00:20:17;;;;;;;3.63;3.00;;;9.00;99.90;;;;;;5001324;28;20121;-40
2023/10/30 00:22:43;;;;;;;4.90;2.60;;;9.00;99.90;;;;;;5000808;28;20032;-39
2023/10/30 00:25:09;;;;;;;4.88;2.90;;;8.80;99.90;;;;;;5003328;28;20038;-40
2023/10/30 00:27:34;;;;;;;3.10;2.72;;;8.70;99.90;;;;;;5002804;28;20083;-39
2023/10/30 00:30:00;;;;;;;5.43;2.80;;;8.80;99.90;;;;;;5003298;28;20444;-38
2023/10/30 00:32:26;;;;;;;4.18;3.20;;;8.80;99.90;;;;;;4999687;28;20030;-39
2023/10/30 00:34:51;;;;;;;3.47;2.80;;;8.80;99.90;;;;;;5000854;28;20121;-37
2023/10/30 00:37:17;;;;;;;5.82;2.85;;;8.80;99.90;;;;;;5002404;28;20386;-39
2023/10/30 00:39:43;;;;;;;2.97;2.65;;;8.70;99.90;;;;;;5003077;28;20693;-38
2023/10/30 00:42:09;;;;;;;3.38;3.08;;;8.70;99.90;;;;;;5002390;28;20112;-39
2023/10/30 00:44:37;;;;;;;2.83;2.63;;;8.70;99.90;;;;;;4984760;28;20124;-39
2023/10/30 00:47:04;;;;;;;5.05;3.10;;;8.70;99.90;;;;;;4999224;28;20109;-38
2023/10/30 00:49:30;;;;;;;3.45;2.72;;;8.80;99.90;;;;;;5001372;28;20387;-37
2023/10/30 00:51:55;;;;;;;3.13;2.80;;;8.70;99.90;;;;;;5001959;28;20026;-40
2023/10/30 00:54:21;;;;;;;2.83;2.53;;;8.60;99.90;;;;;;5000262;28;20558;-34
2023/10/30 00:56:47;;;;;;;3.22;2.92;;;8.60;99.90;;;;;;4998702;28;20141;-38
2023/10/30 00:59:12;;;;;;;3.60;3.10;;;8.60;99.90;;;;;;5002679;28;20442;-35
2023/10/30 01:01:38;;;;;;;6.65;3.50;;;8.60;99.90;;;;;;5001465;28;20042;-41
2023/10/30 01:04:05;;;;;;;5.15;3.60;;;8.60;99.90;;;;;;5003349;28;20552;-38
2023/10/30 01:06:31;;;;;;;3.90;2.95;;;8.60;99.90;;;;;;5000169;28;20065;-41
2023/10/30 01:08:56;;;;;;;3.55;3.25;;;8.50;99.90;;;;;;5003969;28;20076;-40
2023/10/30 01:11:22;;;;;;;5.03;3.03;;;8.50;99.90;;;;;;5002309;28;20045;-42
2023/10/30 01:13:48;;;;;;;3.35;2.88;;;8.50;99.90;;;;;;5002710;28;20032;-40
2023/10/30 01:16:13;;;;;;;19.70;3.83;;;8.50;99.90;;;;;;5002550;28;20034;-33
2023/10/30 01:18:39;;;;;;;4.18;2.90;;;8.50;99.90;;;;;;5000305;28;20067;-39
2023/10/30 01:21:09;;;;;;;64.63;7.70;;;8.20;99.90;;;;;;5003697;28;20034;-40
2023/10/30 01:23:35;;;;;;;7.38;2.97;;;8.10;99.90;;;;;;5000924;28;20526;-38
2023/10/30 01:26:00;;;;;;;3.47;3.17;;;8.20;99.90;;;;;;4999260;28;20026;-39
2023/10/30 01:28:26;;;;;;;3.85;3.50;;;8.10;99.90;;;;;;5002181;28;20032;-39
2023/10/30 01:30:51;;;;;;;6.10;3.22;;;8.20;99.90;;;;;;5002439;28;20034;-36
2023/10/30 01:33:17;;;;;;;3.95;3.20;;;8.20;99.90;;;;;;5000990;28;20454;-37
2023/10/30 01:35:42;;;;;;;4.00;3.42;;;8.20;99.90;;;;;;5002335;28;20128;-38
2023/10/30 01:38:08;;;;;;;5.78;3.28;;;8.30;99.90;;;;;;5002118;28;20479;-41
2023/10/30 01:40:35;;;;;;;4.63;3.63;;;8.30;99.90;;;;;;4999716;28;20048;-34
2023/10/30 01:43:08;;;;;;;4.05;3.00;;;8.20;99.90;;;;;;4998946;28;20504;-38
2023/10/30 01:45:33;;;;;;;4.05;3.03;;;8.20;99.90;;;;;;4999887;28;20133;-37
2023/10/30 01:47:59;;;;;;;2.60;2.30;;;8.20;99.90;;;;;;5000793;28;20335;-41
2023/10/30 01:50:25;;;;;;;3.15;2.70;;;8.20;99.90;;;;;;5003483;28;20049;-36
2023/10/30 01:52:50;;;;;;;2.70;2.28;;;8.10;99.90;;;;;;5003065;28;21769;-39
2023/10/30 01:55:16;;;;;;;3.08;2.70;;;8.10;99.90;;;;;;5003584;28;20443;-37
2023/10/30 01:57:43;;;;;;;6.20;2.90;;;8.00;99.90;;;;;;5001167;28;20395;-37
2023/10/30 02:00:10;;;;;;;6.65;3.20;;;7.90;99.90;;;;;;5003752;28;20034;-39
2023/10/30 02:02:38;;;;;;;3.28;2.80;;;7.80;99.90;;;;;;4980790;28;20091;-37
2023/10/30 02:05:05;;;;;;;5.00;2.88;;;7.60;99.90;;;;;;4999214;28;20045;-39
2023/10/30 02:07:31;;;;;;;3.65;3.17;;;7.50;99.90;;;;;;4999116;28;20076;-39
2023/10/30 02:09:57;;;;;;;3.80;2.90;;;7.60;99.90;;;;;;5000272;28;20483;-33
2023/10/30 02:12:22;;;;;;;5.00;3.22;;;7.60;99.90;;;;;;4984106;28;20030;-29
2023/10/30 02:14:48;;;;;;;3.35;3.05;;;7.60;99.90;;;;;;5002074;28;20383;-31
2023/10/30 02:17:13;;;;;;;3.67;3.38;;;7.60;99.90;;;;;;5003833;28;20115;-35
2023/10/30 02:19:39;;;;;;;6.13;3.65;;;7.70;99.90;;;;;;5005108;28;20068;-31
2023/10/30 02:22:05;;;;;;;5.35;3.30;;;7.60;99.90;;;;;;5002401;28;20049;-29
2023/10/30 02:24:31;;;;;;;3.72;3.15;;;7.60;99.90;;;;;;4999769;28;20066;-30
2023/10/30 02:26:57;;;;;;;4.53;3.45;;;7.70;99.90;;;;;;5001407;28;20510;-30
2023/10/30 02:29:23;;;;;;;2.97;2.78;;;7.70;99.90;;;;;;5002189;28;20259;-32
2023/10/30 02:31:50;;;;;;;3.28;2.97;;;7.70;99.90;;;;;;5002226;28;20057;-35
2023/10/30 02:34:16;;;;;;;3.35;3.05;;;7.80;99.90;;;;;;5000059;28;20440;-30
2023/10/30 02:36:42;;;;;;;3.20;2.78;;;7.70;99.90;;;;;;4984309;28;20026;-34
2023/10/30 02:39:07;;;;;;;2.65;2.30;;;7.60;99.90;;;;;;4987081;28;20467;-36
2023/10/30 02:41:33;;;;;;;3.55;2.75;;;7.50;99.90;;;;;;5000298;28;20095;-31
2023/10/30 02:43:59;;;;;;;2.67;2.47;;;7.60;99.90;;;;;;5003089;28;20042;-31
2023/10/30 02:46:25;;;;;;;15.02;3.45;;;7.50;99.90;;;;;;5002671;28;20029;-31
2023/10/30 02:48:50;;;;;;;14.20;2.88;;;7.50;99.90;;;;;;4984576;28;20030;-31
2023/10/30 02:51:16;;;;;;;2.33;2.13;;;7.40;99.90;;;;;;5000283;28;20033;-32
2023/10/30 02:53:42;;;;;;;3.65;2.50;;;7.40;99.90;;;;;;4998721;28;20083;-31
2023/10/30 02:56:08;;;;;;;2.63;2.40;;;7.40;99.90;;;;;;5004642;28;20422;-29
2023/10/30 02:58:34;;;;;;;2.50;2.30;;;7.40;99.90;;;;;;5002971;28;20499;-29
2023/10/30 03:01:00;;;;;;;3.28;2.88;;;7.50;99.90;;;;;;5003511;28;20034;-29
2023/10/30 03:03:26;;;;;;;4.45;2.85;;;7.50;99.90;;;;;;5001638;28;20045;-31
2023/10/30 03:05:52;;;;;;;4.80;2.60;;;7.60;99.90;;;;;;5003339;28;20037;-34
2023/10/30 03:08:17;;;;;;;3.22;2.60;;;7.40;99.90;;;;;;5000412;28;20041;-29
2023/10/30 03:10:43;;;;;;;3.10;2.50;;;7.40;99.90;;;;;;5003400;28;20025;-30
2023/10/30 03:13:09;;;;;;;3.13;2.85;;;7.40;99.90;;;;;;5003283;28;20140;-31
2023/10/30 03:15:35;;;;;;;4.10;2.65;;;7.50;99.90;;;;;;5001569;28;20151;-34
2023/10/30 03:18:01;;;;;;;3.38;2.47;;;7.40;99.90;;;;;;5003032;28;20037;-30
2023/10/30 03:20:27;;;;;;;2.55;2.33;;;7.50;99.90;;;;;;5001059;28;20029;-38
2023/10/30 03:22:53;;;;;;;3.55;2.25;;;7.40;99.90;;;;;;5001217;28;20034;-38
2023/10/30 03:25:18;;;;;;;2.42;2.22;;;7.20;99.90;;;;;;5003757;28;20034;-38
2023/10/30 03:27:44;;;;;;;2.30;2.10;;;7.10;99.90;;;;;;5003973;28;20044;-40
2023/10/30 03:30:10;;;;;;;2.38;2.20;;;7.10;99.90;;;;;;5004117;28;20398;-40
2023/10/30 03:32:36;;;;;;;2.72;2.47;;;7.10;99.90;;;;;;5002724;28;20578;-42
2023/10/30 03:35:02;;;;;;;3.22;2.22;;;7.20;99.90;;;;;;5003119;28;20157;-40
2023/10/30 03:37:28;;;;;;;2.63;2.42;;;7.20;99.90;;;;;;5004325;28;20061;-38
2023/10/30 03:39:54;;;;;;;3.55;2.40;;;7.20;99.90;;;;;;5001303;28;20069;-40
2023/10/30 03:42:19;;;;;;;3.05;2.40;;;7.10;99.90;;;;;;5001672;28;20033;-41
2023/10/30 03:44:45;;;;;;;3.13;2.65;;;7.10;99.90;;;;;;5002859;28;20028;-37
2023/10/30 03:47:11;;;;;;;2.70;2.50;;;7.10;99.90;;;;;;5003607;28;20064;-40
2023/10/30 03:49:36;;;;;;;3.20;2.88;;;6.90;99.90;;;;;;5004861;28;20026;-40
2023/10/30 03:52:02;;;;;;;2.78;2.58;;;6.80;99.90;;;;;;5005257;28;20022;-41
2023/10/30 03:54:27;;;;;;;4.00;2.72;;;6.90;99.90;;;;;;4988332;28;20022;-37
2023/10/30 03:56:53;;;;;;;8.45;2.80;;;6.80;99.90;;;;;;5003807;28;20029;-39
2023/10/30 03:59:20;;;;;;;3.33;2.80;;;6.60;99.90;;;;;;5002751;28;20045;-43
2023/10/30 04:01:45;;;;;;;3.50;3.15;;;6.60;99.90;;;;;;4997081;28;20046;-40
2023/10/30 04:04:11;;;;;;;3.22;2.92;;;6.80;99.90;;;;;;5001610;28;20030;-40
2023/10/30 04:06:37;;;;;;;3.67;2.92;;;6.90;99.90;;;;;;5003707;28;20037;-39
2023/10/30 04:09:04;;;;;;;3.50;3.20;;;6.90;99.90;;;;;;5002604;28;20131;-38
2023/10/30 04:11:30;;;;;;;3.70;3.40;;;7.00;99.90;;;;;;5004311;28;20018;-35
2023/10/30 04:13:56;;;;;;;3.55;2.92;;;7.10;99.90;;;;;;5003772;28;20315;-41
2023/10/30 04:16:22;;;;;;;3.08;2.80;;;7.00;99.90;;;;;;5001120;28;20026;-39
2023/10/30 04:18:47;;;;;;;6.82;3.10;;;7.00;99.90;;;;;;5003604;28;20611;-41
2023/10/30 04:21:13;;;;;;;4.80;3.08;;;7.00;99.90;;;;;;5000230;28;20030;-34
2023/10/30 04:23:40;;;;;;;4.40;3.10;;;7.00;99.90;;;;;;5004051;28;20061;-38
2023/10/30 04:26:06;;;;;;;3.80;3.42;;;7.00;99.90;;;;;;4998885;28;20677;-40
2023/10/30 04:28:32;;;;;;;3.53;2.92;;;7.00;99.90;;;;;;4999707;28;20191;-42
2023/10/30 04:30:57;;;;;;;5.18;3.33;;;7.10;99.90;;;;;;5002368;28;20026;-40
2023/10/30 04:33:23;;;;;;;76.78;10.23;;;7.10;99.90;;;;;;5002348;28;20575;-40
2023/10/30 04:35:48;;;;;;;4.00;3.03;;;7.10;99.90;;;;;;5001611;28;20092;-38
2023/10/30 04:38:14;;;;;;;21.52;3.28;;;7.10;99.90;;;;;;5002460;28;20061;-38
2023/10/30 04:40:40;;;;;;;25.67;3.97;;;7.10;99.90;;;;;;5004217;28;20037;-37
2023/10/30 04:43:05;;;;;;;3.80;2.78;;;7.00;99.90;;;;;;5002559;28;20038;-37
2023/10/30 04:45:31;;;;;;;3.40;2.67;;;7.00;99.90;;;;;;4999805;28;20073;-40
2023/10/30 04:47:57;;;;;;;3.30;2.85;;;6.90;99.90;;;;;;4999239;28;20030;-38
2023/10/30 04:50:22;;;;;;;2.78;2.58;;;6.90;99.90;;;;;;5000313;28;20478;-38
2023/10/30 04:52:48;;;;;;;3.08;2.50;;;6.90;99.90;;;;;;4999947;28;20457;-39
2023/10/30 04:55:14;;;;;;;2.50;2.30;;;6.90;99.90;;;;;;5002233;28;20530;-38
2023/10/30 04:57:39;;;;;;;6.45;3.10;;;6.90;99.90;;;;;;5001902;28;20044;-38
2023/10/30 05:00:06;;;;;;;4.40;3.00;;;6.90;99.90;;;;;;5002364;28;20112;-39
2023/10/30 05:02:31;;;;;;;3.20;2.55;;;6.90;99.90;;;;;;5000488;28;20410;-39
2023/10/30 05:04:57;;;;;;;3.38;2.90;;;6.90;99.90;;;;;;5000022;28;20017;-40
2023/10/30 05:07:23;;;;;;;2.53;2.33;;;6.90;99.90;;;;;;5000399;28;20030;-37
2023/10/30 05:09:49;;;;;;;3.83;3.38;;;6.90;99.90;;;;;;5000252;28;20590;-39
2023/10/30 05:12:14;;;;;;;4.10;3.70;;;6.90;99.90;;;;;;4997761;28;20120;-38
2023/10/30 05:14:40;;;;;;;3.30;3.00;;;6.90;99.90;;;;;;5000541;28;20455;-38
2023/10/30 05:17:06;;;;;;;3.85;3.42;;;7.00;99.90;;;;;;5003027;28;20052;-39
2023/10/30 05:19:32;;;;;;;3.67;3.30;;;7.00;99.90;;;;;;4996539;28;20549;-37
2023/10/30 05:21:57;;;;;;;3.83;3.42;;;7.00;99.90;;;;;;5003319;28;20503;-40
2023/10/30 05:24:23;;;;;;;4.78;3.72;;;7.00;99.90;;;;;;5003808;28;20045;-39
2023/10/30 05:26:49;;;;;;;4.90;3.72;;;7.10;99.90;;;;;;5002571;28;20048;-39
2023/10/30 05:29:15;;;;;;;8.38;3.83;;;7.20;99.90;;;;;;5001514;28;20052;-36
2023/10/30 05:31:42;;;;;;;4.38;3.83;;;7.20;99.90;;;;;;5001677;28;20026;-36
2023/10/30 05:34:08;;;;;;;4.93;3.72;;;7.20;99.90;;;;;;4999898;28;20041;-38
2023/10/30 05:36:34;;;;;;;5.72;3.88;;;7.10;99.90;;;;;;5000073;28;20036;-39
2023/10/30 05:39:00;;;;;;;4.45;4.03;;;7.20;99.90;;;;;;4998931;28;20137;-39
2023/10/30 05:41:26;;;;;;;5.80;3.92;;;7.20;99.90;;;;;;5003448;28;20033;-39
2023/10/30 05:43:52;;;;;;;4.88;4.20;;;7.20;99.90;;;;;;5002163;28;20049;-37
2023/10/30 05:46:18;;;;;;;7.00;4.25;;;7.20;99.90;;;;;;5000415;28;20029;-42
2023/10/30 05:48:47;;;;;;;121.95;14.38;;;7.10;99.90;;;;;;5003110;28;20088;-41
2023/10/30 05:51:12;;;;;;;;;;;7.00;99.90;;;;;;5002446;28;20080;-40
2023/10/30 05:53:38;;;;;;;63.78;9.55;;;6.90;99.90;;;;;;5000676;28;20322;-41
2023/10/30 05:56:04;;;;;;;4.35;3.40;;;6.90;99.90;;;;;;4998923;28;20117;-40
2023/10/30 05:58:29;;;;;;;4.28;3.80;;;6.90;99.90;;;;;;4996893;28;20034;-41
2023/10/30 06:00:55;;;;;;;5.55;4.30;;;6.90;99.90;;;;;;4999721;28;20491;-39
2023/10/30 06:03:20;;;;;;;9.63;4.47;;;7.00;99.90;;;;;;4977605;28;20026;-39
2023/10/30 06:05:46;;;;;;;5.75;4.25;;;7.00;99.90;;;;;;5000284;28;20459;-40
2023/10/30 06:08:12;;;;;;;11.70;5.40;;;7.00;99.90;;;;;;4998712;28;20033;-34
2023/10/30 06:10:38;;;;;;;5.82;4.00;;;7.00;99.90;;;;;;5001883;28;20029;-40
2023/10/30 06:13:06;;;;;;;4.72;4.22;;;7.00;99.90;;;;;;4999724;28;20045;-41
2023/10/30 06:15:32;;;;;;;4.65;4.18;;;7.00;99.90;;;;;;5001200;28;20022;-34
2023/10/30 06:17:57;;;;;;;5.35;4.22;;;7.00;99.90;;;;;;4999990;28;20403;-40
2023/10/30 06:20:23;;;;;;;8.48;4.80;;;7.00;99.90;;;;;;4999729;28;20418;-40
2023/10/30 06:22:49;;;;;;;5.65;4.47;;;7.00;99.90;;;;;;4998215;28;20038;-40
2023/10/30 06:25:14;;;;;;;8.07;4.97;;;7.10;99.90;;;;;;4997962;28;20048;-38
2023/10/30 06:27:41;;;;;;;5.43;4.40;;;7.20;99.90;;;;;;4998161;28;20149;-32
2023/10/30 06:30:08;;;;;;;6.65;4.40;;;7.30;99.90;;;;;;4998801;28;20479;-38
2023/10/30 06:32:34;;;;;;;5.57;4.38;;;7.30;99.90;;;;;;4995798;28;20492;-38
2023/10/30 06:35:00;;;;;;;5.15;4.57;;;7.30;99.90;;;;;;4997761;28;20107;-40
2023/10/30 06:37:25;;;;;;;5.40;4.57;;;7.30;99.90;;;;;;4996159;28;20026;-41
2023/10/30 06:39:51;;;;;;;241.05;18.40;;;7.30;99.90;;;;;;4999723;28;20372;-41
2023/10/30 06:42:16;;;;;;;4.88;4.30;;;7.20;99.90;;;;;;4999337;28;20037;-39
2023/10/30 06:44:42;;;;;;;6.32;3.88;;;7.00;99.90;;;;;;4998108;28;20171;-39
2023/10/30 06:47:08;;;;;;;6.40;4.18;;;7.10;99.90;;;;;;4999829;28;20137;-41
2023/10/30 06:49:34;;;;;;;9.52;4.00;;;7.20;99.90;;;;;;4997858;28;20763;-41
2023/10/30 06:52:00;;;;;;;33.70;5.50;;;7.10;99.90;;;;;;4998471;28;21123;-32
2023/10/30 06:54:26;;;;;;;4.13;3.20;;;7.10;99.90;;;;;;4997301;28;20125;-36
2023/10/30 06:56:52;;;;;;;4.40;4.00;;;7.10;99.90;;;;;;4994500;28;20144;-32
2023/10/30 06:59:18;;;;;;;4.82;3.80;;;7.20;99.90;;;;;;4982340;28;20066;-32
2023/10/30 07:01:46;;;;;;;4.45;3.85;;;7.20;99.90;;;;;;5000081;28;20069;-32
2023/10/30 07:04:13;;;;;;;4.57;3.80;;;7.20;99.90;;;;;;5000002;28;20068;-36
2023/10/30 07:06:43;;;;;;;3.88;3.45;;;7.30;99.90;;;;;;5000538;28;20033;-33
2023/10/30 07:09:10;;;;;;;4.03;3.63;;;7.30;99.90;;;;;;4999238;28;20030;-32
2023/10/30 07:11:36;;;;;;;4.00;3.60;;;7.40;99.90;;;;;;4999672;28;20026;-33
2023/10/30 07:14:03;;;;;;;6.68;4.45;;;7.40;99.90;;;;;;5000281;28;20384;-33
2023/10/30 07:16:33;;;;;;;6.45;4.32;;;7.30;99.90;;;;;;4995624;28;20109;-35
2023/10/30 07:18:59;;;;;;;6.53;5.03;;;7.30;99.90;;;;;;4998079;28;20034;-32
2023/10/30 07:21:25;;;;;;;7.72;5.05;;;7.30;99.90;;;;;;4998043;28;20037;-37
2023/10/30 07:23:51;;;;;;;5.53;4.20;;;7.30;99.90;;;;;;4998152;28;20377;-36
2023/10/30 07:26:17;;;;;;;6.18;4.30;;;7.30;99.90;;;;;;5000779;28;20033;-32
2023/10/30 07:28:43;;;;;;;4.65;4.05;;;7.30;99.90;;;;;;4996518;28;20089;-33
2023/10/30 07:31:09;;;;;;;5.22;3.97;;;7.30;99.90;;;;;;4996504;28;20096;-32
2023/10/30 07:33:35;;;;;;;4.60;4.18;;;7.40;99.90;;;;;;4999697;28;20503;-33
2023/10/30 07:36:01;;;;;;;5.57;4.28;;;7.40;99.90;;;;;;4999911;28;20029;-32
2023/10/30 07:38:27;;;;;;;5.75;4.40;;;7.50;99.90;;;;;;4998913;28;20036;-32
2023/10/30 07:40:53;;;;;;;6.40;4.78;;;7.60;99.90;;;;;;4998389;28;20408;-36
2023/10/30 07:43:21;;;;;;;5.63;4.75;;;7.70;99.90;;;;;;4994995;28;20121;-32
2023/10/30 07:45:47;;;;;;;6.75;5.32;;;7.90;99.90;;;;;;4995565;28;20101;-32
2023/10/30 07:48:13;;;;;;;6.90;5.07;;;8.00;99.90;;;;;;4994289;28;20034;-36
2023/10/30 07:50:39;;;;;;;8.80;5.38;;;8.10;99.90;;;;;;5002369;28;20506;-32
2023/10/30 07:53:04;;;;;;;8.30;6.28;;;8.30;99.90;;;;;;4998961;28;20544;-34
2023/10/30 07:55:30;;;;;;;10.68;6.22;;;8.60;99.90;;;;;;4997960;28;20022;-32
2023/10/30 07:57:56;;;;;;;9.55;6.45;;;8.90;99.90;;;;;;4995874;28;20125;-32
2023/10/30 08:00:21;;;;;;;9.77;5.97;;;9.20;99.90;;;;;;5000998;28;20030;-33
2023/10/30 08:02:48;;;;;;;8.90;6.45;;;9.40;99.90;;;;;;4999515;28;20036;-37
2023/10/30 08:05:15;;;;;;;7.25;6.15;;;9.50;99.90;;;;;;4997108;28;20042;-40
2023/10/30 08:07:41;;;;;;;8.27;6.40;;;9.60;99.90;;;;;;4999988;28;20061;-34
2023/10/30 08:10:07;;;;;;;8.23;5.95;;;9.80;99.90;;;;;;5004256;28;20593;-37
2023/10/30 08:12:33;;;;;;;7.25;6.10;;;9.90;99.90;;;;;;5006079;28;20404;-41
2023/10/30 08:14:59;;;;;;;8.55;5.93;;;10.00;99.90;;;;;;5006112;28;20038;-38
2023/10/30 08:17:26;;;;;;;6.28;5.50;;;10.10;99.90;;;;;;5001297;28;21117;-41
2023/10/30 08:19:51;;;;;;;8.00;5.70;;;10.20;99.90;;;;;;5005007;28;20073;-41
2023/10/30 08:22:17;;;;;;;6.45;4.57;;;10.30;99.90;;;;;;4998615;28;20033;-39
2023/10/30 08:24:42;;;;;;;5.20;4.10;;;10.50;99.90;;;;;;5001331;28;20034;-34
2023/10/30 08:27:08;;;;;;;5.40;4.63;;;10.50;99.90;;;;;;5003271;28;20049;-36
2023/10/30 08:29:34;;;;;;;5.70;3.70;;;10.70;99.90;;;;;;5000808;28;20033;-39
2023/10/30 08:31:59;;;;;;;3.70;3.08;;;10.80;99.90;;;;;;5003210;28;20228;-36
2023/10/30 08:34:26;;;;;;;4.68;3.20;;;10.90;99.90;;;;;;5003335;28;20120;-39
2023/10/30 08:36:52;;;;;;;4.53;3.42;;;11.00;99.90;;;;;;5002387;28;20050;-40
2023/10/30 08:39:17;;;;;;;5.40;3.65;;;11.10;99.90;;;;;;5000681;28;20470;-40
2023/10/30 08:41:43;;;;;;;4.82;3.17;;;11.20;99.90;;;;;;5000747;28;20113;-35
2023/10/30 08:44:08;;;;;;;4.22;3.28;;;11.40;99.90;;;;;;4999718;28;20483;-41
2023/10/30 08:46:34;;;;;;;6.22;3.55;;;11.40;99.90;;;;;;5003618;28;20038;-40
2023/10/30 08:49:00;;;;;;;2.53;2.33;;;11.50;99.90;;;;;;5002731;28;20037;-41
2023/10/30 08:51:25;;;;;;;3.28;2.95;;;11.60;99.90;;;;;;5004320;28;20368;-41
2023/10/30 08:53:51;;;;;;;2.90;2.60;;;11.70;99.90;;;;;;5002774;28;20495;-37
2023/10/30 08:56:17;;;;;;;2.28;2.10;;;11.90;99.90;;;;;;5003751;28;20373;-40
2023/10/30 08:58:43;;;;;;;3.67;2.35;;;12.00;99.90;;;;;;5003227;28;20494;-36
2023/10/30 09:01:09;;;;;;;3.95;2.25;;;12.10;99.90;;;;;;5001006;28;20117;-39
2023/10/30 09:03:34;;;;;;;3.75;2.08;;;12.10;99.90;;;;;;5001665;28;20069;-36
2023/10/30 09:06:00;;;;;;;3.47;1.98;;;12.20;99.90;;;;;;5000891;28;20178;-39
2023/10/30 09:08:25;;;;;;;2.00;1.85;;;12.30;99.90;;;;;;5001596;28;20188;-35
2023/10/30 09:10:51;;;;;;;1.80;1.70;;;12.40;99.90;;;;;;4998747;28;20033;-40
2023/10/30 09:13:17;;;;;;;2.60;1.75;;;12.50;99.90;;;;;;5004469;28;20029;-34
2023/10/30 09:15:44;;;;;;;4.22;1.80;;;12.60;99.90;;;;;;5000988;28;20071;-34
2023/10/30 09:18:09;;;;;;;2.53;1.77;;;12.70;99.90;;;;;;4999911;28;20665;-34
2023/10/30 09:20:35;;;;;;;2.40;1.95;;;12.70;99.90;;;;;;4997828;28;20030;-34
2023/10/30 09:23:01;;;;;;;2.00;1.90;;;12.80;99.90;;;;;;4998249;28;20051;-33
2023/10/30 09:25:26;;;;;;;1.60;1.50;;;12.80;99.90;;;;;;5002875;28;20045;-33
2023/10/30 09:27:52;;;;;;;1.92;1.50;;;12.90;99.90;;;;;;4979730;28;20026;-32
2023/10/30 09:30:18;;;;;;;1.75;1.65;;;12.90;99.90;;;;;;5002194;28;20550;-32
2023/10/30 09:32:44;;;;;;;2.08;1.40;;;12.90;99.90;;;;;;4997151;28;20080;-32
2023/10/30 09:35:10;;;;;;;3.13;2.05;;;13.00;99.90;;;;;;5001277;28;20073;-33
2023/10/30 09:37:37;;;;;;;3.80;2.13;;;13.10;99.90;;;;;;5000983;28;20057;-34
2023/10/30 09:40:04;;;;;;;1.50;1.40;;;13.10;99.90;;;;;;5001065;28;20507;-33
2023/10/30 09:42:32;;;;;;;1.67;1.40;;;13.20;99.90;;;;;;4998814;28;20364;-34
2023/10/30 09:44:59;;;;;;;1.88;1.65;;;13.20;99.90;;;;;;4999619;28;20041;-33
2023/10/30 09:47:27;;;;;;;3.08;1.60;;;13.30;99.90;;;;;;5001451;28;20558;-32
2023/10/30 09:49:54;;;;;;;1.77;1.67;;;13.40;99.90;;;;;;5000972;28;20037;-32
2023/10/30 09:52:21;;;;;;;1.90;1.60;;;13.40;99.90;;;;;;5001285;28;20298;-33
2023/10/30 09:54:48;;;;;;;1.75;1.60;;;13.40;99.90;;;;;;4998034;28;20331;-36
2023/10/30 09:57:14;;;;;;;2.53;1.80;;;13.40;99.90;;;;;;5001299;28;20057;-35
2023/10/30 09:59:41;;;;;;;2.38;1.42;;;13.40;99.90;;;;;;5000618;28;20061;-36
2023/10/30 10:02:08;;;;;;;1.77;1.60;;;13.30;99.90;;;;;;4996432;28;20030;-35
2023/10/30 10:04:38;;;;;;;2.80;1.63;;;13.40;99.90;;;;;;5000473;28;20492;-34
2023/10/30 10:07:05;;;;;;;1.92;1.70;;;13.40;99.90;;;;;;5000890;28;20030;-35
2023/10/30 10:09:31;;;;;;;2.08;1.77;;;13.40;99.90;;;;;;5000324;28;20033;-35
2023/10/30 10:11:58;;;;;;;1.83;1.73;;;13.40;99.90;;;;;;4999660;28;20034;-30
2023/10/30 10:14:24;;;;;;;3.28;1.80;;;13.40;99.90;;;;;;5000348;28;20022;-31
2023/10/30 10:16:49;;;;;;;1.80;1.63;;;13.40;99.90;;;;;;5000096;28;20029;-36
2023/10/30 10:19:22;;;;;;;2.47;1.73;;;13.40;99.90;;;;;;5000472;28;20498;-34
2023/10/30 10:21:49;;;;;;;1.98;1.88;;;13.50;99.90;;;;;;4998508;28;20022;-32
2023/10/30 10:24:28;;;;;;;3.08;1.70;;;13.50;99.90;;;;;;4996559;28;20501;-32
2023/10/30 10:26:53;;;;;;;2.78;2.08;;;13.60;99.90;;;;;;4999198;28;20037;-32
2023/10/30 10:29:26;;;;;;;1.77;1.60;;;13.60;99.90;;;;;;4998521;28;20053;-36
2023/10/30 10:31:51;;;;;;;2.05;1.90;;;13.60;99.90;;;;;;4998514;28;20030;-32
2023/10/30 10:34:17;;;;;;;3.40;2.22;;;13.70;99.90;;;;;;4998733;28;20042;-32
2023/10/30 10:36:43;;;;;;;2.58;2.38;;;13.70;99.90;;;;;;4998962;28;21050;-32
2023/10/30 10:39:09;;;;;;;4.32;2.13;;;13.70;99.90;;;;;;4999015;28;20060;-33
2023/10/30 10:41:37;;;;;;;4.28;2.20;;;13.70;99.90;;;;;;5001027;28;20038;-32
2023/10/30 10:44:05;;;;;;;3.78;2.22;;;13.70;99.90;;;;;;4999182;28;20040;-32
2023/10/30 10:46:30;;;;;;;2.67;2.10;;;13.70;99.90;;;;;;5000051;28;20436;-32
2023/10/30 10:48:56;;;;;;;2.03;1.83;;;13.70;99.90;;;;;;4999442;28;20171;-33
2023/10/30 10:51:33;;;;;;;2.63;2.00;;;13.80;99.90;;;;;;5000917;28;20072;-31
2023/10/30 10:54:09;;;;;;;2.47;2.15;;;13.80;99.90;;;;;;4998041;28;20321;-37
2023/10/30 10:56:37;;;;;;;2.72;2.20;;;13.80;99.90;;;;;;5000207;28;20450;-31
2023/10/30 10:59:06;;;;;;;2.70;2.40;;;13.70;99.90;;;;;;4998890;28;20565;-33
2023/10/30 11:01:38;;;;;;;3.72;2.30;;;13.70;99.90;;;;;;4998517;28;20159;-32
2023/10/30 11:04:05;;;;;;;2.88;2.33;;;13.70;99.90;;;;;;5000475;28;20041;-32
2023/10/30 11:06:37;;;;;;;3.92;2.45;;;13.70;99.90;;;;;;4999256;28;20040;-35
2023/10/30 11:09:13;;;;;;;2.67;2.30;;;13.70;99.90;;;;;;5000021;28;20030;-31
2023/10/30 11:11:54;;;;;;;2.70;2.40;;;13.70;99.90;;;;;;5000758;28;20481;-32
2023/10/30 11:14:32;;;;;;;4.05;2.65;;;13.80;99.90;;;;;;4999652;28;20081;-32
2023/10/30 11:17:02;;;;;;;3.15;2.60;;;13.80;99.90;;;;;;5000575;28;20022;-31
2023/10/30 11:19:28;;;;;;;4.80;2.75;;;13.80;99.90;;;;;;4982562;28;20507;-31
2023/10/30 11:21:54;;;;;;;2.78;2.50;;;13.90;99.90;;;;;;4999554;28;20065;-31
2023/10/30 11:24:43;;;;;;;2.88;2.40;;;13.80;99.90;;;;;;4982197;28;20065;-34
2023/10/30 11:27:38;;;;;;;3.83;2.50;;;13.70;99.90;;;;;;4999451;28;20030;-33
2023/10/30 11:30:10;;;;;;;3.25;2.83;;;13.80;99.90;;;;;;4984867;28;20443;-37
2023/10/30 11:32:52;;;;;;;3.47;2.90;;;13.70;99.90;;;;;;4996122;28;20042;-32
2023/10/30 11:35:24;;;;;;;3.80;2.63;;;13.70;99.90;;;;;;5000338;28;20069;-31
2023/10/30 11:37:52;;;;;;;4.40;2.83;;;13.70;99.90;;;;;;5000111;28;20374;-34
2023/10/30 11:40:18;;;;;;;3.35;2.60;;;13.60;99.90;;;;;;4999355;28;20048;-34
2023/10/30 11:42:44;;;;;;;3.15;2.58;;;13.70;99.90;;;;;;5000490;28;20042;-32
2023/10/30 11:45:28;;;;;;;3.97;2.58;;;13.70;99.90;;;;;;5004629;28;20636;-33
2023/10/30 11:48:04;;;;;;;4.90;2.80;;;13.70;99.90;;;;;;5002422;28;20026;-32
2023/10/30 11:50:42;;;;;;;3.92;2.92;;;13.70;99.90;;;;;;5002806;28;20505;-34
2023/10/30 11:53:16;;;;;;;5.85;3.42;;;13.60;99.90;;;;;;4999288;28;20375;-33
2023/10/30 11:55:42;;;;;;;6.40;3.00;;;13.60;99.90;;;;;;4986128;28;20121;-35
2023/10/30 11:58:10;;;;;;;2.75;2.55;;;13.60;99.90;;;;;;5003358;28;20143;-33
2023/10/30 12:00:48;;;;;;;5.32;2.90;;;13.70;99.90;;;;;;5002243;28;20040;-32
2023/10/30 12:03:14;;;;;;;;;;;13.70;99.90;;;;;;5001916;28;20487;-36
2023/10/30 12:05:40;;;;;;;3.58;2.70;;;13.70;99.90;;;;;;5002055;28;20333;-36
2023/10/30 12:08:06;;;;;;;5.00;2.60;;;13.70;99.90;;;;;;4997450;28;20045;-33
2023/10/30 12:10:32;;;;;;;4.05;2.50;;;13.70;99.90;;;;;;4999994;28;20112;-32
2023/10/30 12:12:58;;;;;;;3.08;2.78;;;13.70;99.90;;;;;;4999156;28;20579;-35
2023/10/30 12:15:30;;;;;;;3.53;3.00;;;13.70;99.90;;;;;;5001684;28;20119;-32
2023/10/30 12:17:56;;;;;;;4.95;2.83;;;13.70;99.90;;;;;;5000880;28;20113;-34
2023/10/30 12:20:22;;;;;;;3.33;2.40;;;13.60;99.90;;;;;;5003839;28;20112;-33
2023/10/30 12:22:47;;;;;;;2.75;2.50;;;13.60;99.90;;;;;;5005539;28;20038;-32
2023/10/30 12:25:17;;;;;;;2.78;2.53;;;13.60;99.90;;;;;;5001771;28;20084;-38
2023/10/30 12:27:43;;;;;;;5.35;2.90;;;13.60;99.90;;;;;;5003961;28;20027;-32
2023/10/30 12:30:16;;;;;;;2.83;2.60;;;13.60;99.90;;;;;;4999794;28;20042;-34
2023/10/30 12:32:43;;;;;;;5.00;2.42;;;13.70;99.90;;;;;;5001519;28;20037;-35
2023/10/30 12:35:13;;;;;;;3.25;2.70;;;13.70;99.90;;;;;;5000218;28;20066;-36
2023/10/30 12:37:40;;;;;;;2.83;2.33;;;13.80;99.90;;;;;;4998126;28;20022;-33
2023/10/30 12:40:09;;;;;;;2.72;2.50;;;13.70;99.90;;;;;;5004402;28;20060;-35
2023/10/30 12:42:45;;;;;;;6.25;2.90;;;13.80;99.90;;;;;;5000372;28;20053;-34
2023/10/30 12:45:12;;;;;;;3.60;2.67;;;13.80;99.90;;;;;;4998394;28;20124;-34
2023/10/30 12:47:39;;;;;;;2.58;2.20;;;13.90;99.90;;;;;;5003348;28;20026;-30
2023/10/30 12:50:07;;;;;;;2.88;2.50;;;13.90;99.90;;;;;;5001714;28;20077;-32